Time;durP1;ratioP1;P1;durP2;ratioP2;P2;SDS_P1;SDS_P2;PMS_P1;PMS_P2;Temp;Humidity;BMP_temperature;BMP_pressure;BME280_temperature;BME280_humidity;BME280_pressure;Samples;Min_cycle;Max_cycle;Signal;HPM_P1;HPM_P2
2022/08/23 00:01:30;;;;;;;27.02;20.40;;;;;;;;;;5048468;28;20029;-83
2022/08/23 00:03:58;;;;;;;26.23;20.92;;;;;;;;;;5046541;28;20043;-82
2022/08/23 00:06:24;;;;;;;22.63;20.23;;;;;;;;;;5041661;28;20017;-83
2022/08/23 00:08:53;;;;;;;26.63;21.23;;;;;;;;;;5042034;28;20021;-82
2022/08/23 00:11:31;;;;;;;25.67;22.13;;;;;;;;;;5044866;28;20028;-83
2022/08/23 00:13:59;;;;;;;25.45;21.65;;;;;;;;;;5044915;28;20078;-84
2022/08/23 00:16:25;;;;;;;26.35;22.95;;;;;;;;;;5046296;28;20028;-83
2022/08/23 00:18:52;;;;;;;21.95;18.88;;;;;;;;;;5049495;28;20017;-85
2022/08/23 00:21:19;;;;;;;23.75;18.00;;;;;;;;;;5049788;28;20009;-84
2022/08/23 00:23:46;;;;;;;24.65;16.25;;;;;;;;;;5045106;28;20475;-82
2022/08/23 00:26:12;;;;;;;21.48;17.83;;;;;;;;;;5045068;28;20077;-83
2022/08/23 00:28:39;;;;;;;24.30;17.67;;;;;;;;;;5046772;28;20040;-82
2022/08/23 00:31:06;;;;;;;22.73;17.92;;;;;;;;;;5041403;28;20029;-82
2022/08/23 00:33:33;;;;;;;19.70;17.50;;;;;;;;;;5048623;28;20036;-83
2022/08/23 00:35:59;;;;;;;20.83;18.48;;;;;;;;;;5045272;28;20042;-83
2022/08/23 00:38:26;;;;;;;22.23;18.20;;;;;;;;;;5049736;28;20043;-82
2022/08/23 00:40:55;;;;;;;27.33;20.70;;;;;;;;;;5048142;28;20595;-84
2022/08/23 00:49:10;;;;;;;23.55;20.20;;;;;;;;;;5046598;28;20044;-83
2022/08/23 00:51:56;;;;;;;27.10;20.73;;;;;;;;;;5050249;28;20027;-82
2022/08/23 00:54:23;;;;;;;29.63;22.08;;;;;;;;;;5039907;28;22197;-82
2022/08/23 00:56:50;;;;;;;27.40;22.55;;;;;;;;;;5042633;28;20017;-82
2022/08/23 00:59:19;;;;;;;33.03;24.08;;;;;;;;;;5043441;28;20028;-83
2022/08/23 01:01:46;;;;;;;27.75;21.88;;;;;;;;;;5045467;28;20017;-83
2022/08/23 01:04:13;;;;;;;25.65;21.42;;;;;;;;;;5041451;28;20063;-83
2022/08/23 01:06:44;;;;;;;26.10;21.95;;;;;;;;;;5039060;28;20119;-84
2022/08/23 01:09:18;;;;;;;25.08;19.85;;;;;;;;;;5044058;28;20026;-85
2022/08/23 01:11:49;;;;;;;23.40;19.58;;;;;;;;;;5045777;28;20017;-84
2022/08/23 01:14:26;;;;;;;25.42;19.48;;;;;;;;;;5043630;28;20029;-84
2022/08/23 01:16:57;;;;;;;21.88;17.35;;;;;;;;;;5043645;28;20191;-82
2022/08/23 01:19:34;;;;;;;23.85;18.42;;;;;;;;;;5035905;28;20029;-85
2022/08/23 01:22:11;;;;;;;22.65;17.40;;;;;;;;;;5047218;28;20501;-83
2022/08/23 01:24:37;;;;;;;24.58;17.45;;;;;;;;;;5038518;28;20040;-84
2022/08/23 01:27:04;;;;;;;19.63;16.42;;;;;;;;;;5042324;28;20485;-84
2022/08/23 01:29:30;;;;;;;23.20;17.75;;;;;;;;;;5048573;28;20034;-85
2022/08/23 01:31:57;;;;;;;17.85;15.95;;;;;;;;;;5043421;28;20524;-84
2022/08/23 01:34:27;;;;;;;21.33;16.40;;;;;;;;;;5042287;28;20076;-86
2022/08/23 01:36:54;;;;;;;20.40;18.20;;;;;;;;;;5044862;28;20029;-84
2022/08/23 01:39:21;;;;;;;19.42;17.40;;;;;;;;;;5041551;28;20347;-85
2022/08/23 01:41:50;;;;;;;21.55;16.73;;;;;;;;;;5045479;28;20430;-84
2022/08/23 01:44:16;;;;;;;19.23;16.75;;;;;;;;;;5034948;28;20030;-84
2022/08/23 01:46:43;;;;;;;20.27;18.08;;;;;;;;;;5041035;28;20052;-84
2022/08/23 01:49:10;;;;;;;22.95;18.17;;;;;;;;;;5042480;28;20024;-84
2022/08/23 01:51:37;;;;;;;24.40;18.45;;;;;;;;;;5049304;28;20035;-84
2022/08/23 01:54:03;;;;;;;23.83;18.48;;;;;;;;;;5040328;28;20033;-85
2022/08/23 01:56:32;;;;;;;19.60;17.25;;;;;;;;;;5046853;28;20025;-84
2022/08/23 01:59:00;;;;;;;18.92;16.02;;;;;;;;;;5053894;28;20048;-84
2022/08/23 02:01:26;;;;;;;21.90;18.10;;;;;;;;;;5049258;28;20039;-83
2022/08/23 02:03:54;;;;;;;20.23;18.02;;;;;;;;;;5044753;28;20037;-83
2022/08/23 02:06:20;;;;;;;23.90;18.65;;;;;;;;;;5046335;28;20029;-83
2022/08/23 02:09:02;;;;;;;22.67;18.08;;;;;;;;;;5038519;28;20024;-85
2022/08/23 02:11:32;;;;;;;27.23;19.20;;;;;;;;;;5042227;28;20419;-84
2022/08/23 02:13:59;;;;;;;25.67;19.60;;;;;;;;;;5038993;28;20541;-84
2022/08/23 02:16:28;;;;;;;27.38;18.33;;;;;;;;;;5038032;28;20106;-85
2022/08/23 02:18:55;;;;;;;23.65;19.33;;;;;;;;;;5042236;28;20022;-84
2022/08/23 02:21:22;;;;;;;23.70;19.30;;;;;;;;;;5046390;28;20470;-84
2022/08/23 02:23:50;;;;;;;26.85;19.85;;;;;;;;;;5039361;28;20024;-84
2022/08/23 02:26:16;;;;;;;26.33;19.70;;;;;;;;;;5048260;28;20024;-84
2022/08/23 02:28:44;;;;;;;32.55;20.65;;;;;;;;;;5045390;28;20156;-84
2022/08/23 02:31:12;;;;;;;27.88;22.05;;;;;;;;;;5047092;28;20025;-86
2022/08/23 02:33:40;;;;;;;26.63;19.80;;;;;;;;;;5043413;28;20478;-84
2022/08/23 02:36:06;;;;;;;36.92;21.27;;;;;;;;;;5041711;28;20447;-84
2022/08/23 02:38:33;;;;;;;28.40;22.30;;;;;;;;;;5038126;28;20044;-84
2022/08/23 02:41:01;;;;;;;28.00;20.02;;;;;;;;;;5041944;28;20087;-84
2022/08/23 02:43:28;;;;;;;24.98;20.35;;;;;;;;;;5041463;28;20562;-85
2022/08/23 02:45:54;;;;;;;22.45;18.48;;;;;;;;;;5050756;28;20127;-85
2022/08/23 02:48:21;;;;;;;24.08;19.83;;;;;;;;;;5048490;28;20014;-84
2022/08/23 02:50:48;;;;;;;23.20;18.60;;;;;;;;;;5046502;28;20049;-85
2022/08/23 02:53:15;;;;;;;27.58;19.42;;;;;;;;;;5048928;28;20028;-84
2022/08/23 02:55:44;;;;;;;27.67;18.42;;;;;;;;;;5044483;28;20029;-85
2022/08/23 02:58:13;;;;;;;23.30;18.65;;;;;;;;;;5032681;28;20457;-83
2022/08/23 03:00:40;;;;;;;25.30;18.40;;;;;;;;;;5035697;28;20034;-84
2022/08/23 03:03:06;;;;;;;22.90;18.15;;;;;;;;;;5041195;28;20021;-84
2022/08/23 03:05:34;;;;;;;25.60;18.77;;;;;;;;;;5038180;28;20075;-83
2022/08/23 03:08:03;;;;;;;24.65;19.30;;;;;;;;;;5039091;28;20022;-85
2022/08/23 03:10:29;;;;;;;23.17;17.60;;;;;;;;;;5046292;28;20021;-82
2022/08/23 03:12:56;;;;;;;22.95;18.33;;;;;;;;;;5048154;28;20025;-84
2022/08/23 03:15:22;;;;;;;27.52;19.35;;;;;;;;;;5037591;28;20029;-85
2022/08/23 03:17:49;;;;;;;24.88;19.05;;;;;;;;;;5046495;28;20032;-83
2022/08/23 03:20:17;;;;;;;32.10;21.48;;;;;;;;;;5040032;28;20048;-85
2022/08/23 03:22:44;;;;;;;23.80;18.50;;;;;;;;;;5044006;28;20084;-84
2022/08/23 03:25:10;;;;;;;23.08;17.80;;;;;;;;;;5050359;28;20037;-83
2022/08/23 03:27:36;;;;;;;27.13;19.30;;;;;;;;;;5035665;28;20021;-84
2022/08/23 03:30:03;;;;;;;24.58;19.88;;;;;;;;;;5036062;28;20029;-84
2022/08/23 03:32:30;;;;;;;26.55;19.30;;;;;;;;;;5041439;28;20029;-83
2022/08/23 03:34:56;;;;;;;25.52;19.20;;;;;;;;;;5035934;28;20054;-83
2022/08/23 03:37:23;;;;;;;21.08;18.13;;;;;;;;;;5053440;28;20037;-83
2022/08/23 03:39:49;;;;;;;25.98;20.48;;;;;;;;;;5048690;28;20477;-82
2022/08/23 03:42:16;;;;;;;25.33;20.00;;;;;;;;;;5050211;28;20521;-83
2022/08/23 03:44:45;;;;;;;24.13;19.92;;;;;;;;;;5050621;28;20036;-83
2022/08/23 03:47:12;;;;;;;26.02;20.75;;;;;;;;;;5045115;28;20064;-83
2022/08/23 03:49:39;;;;;;;25.20;21.33;;;;;;;;;;5046267;28;20064;-83
2022/08/23 03:52:06;;;;;;;27.92;21.58;;;;;;;;;;5047945;28;20351;-82
2022/08/23 03:54:32;;;;;;;27.60;22.08;;;;;;;;;;5048501;28;20029;-84
2022/08/23 03:57:01;;;;;;;30.00;21.70;;;;;;;;;;5050108;28;20052;-84
2022/08/23 03:59:31;;;;;;;29.33;21.52;;;;;;;;;;5041624;28;20049;-83
2022/08/23 04:01:57;;;;;;;34.05;24.48;;;;;;;;;;5042507;28;20116;-84
2022/08/23 04:04:24;;;;;;;30.83;23.92;;;;;;;;;;5049523;28;20068;-84
2022/08/23 04:06:51;;;;;;;30.63;22.65;;;;;;;;;;5047331;28;20021;-82
2022/08/23 04:09:17;;;;;;;27.98;21.42;;;;;;;;;;5049330;28;20013;-83
2022/08/23 04:11:45;;;;;;;27.95;21.90;;;;;;;;;;5039789;28;20028;-82
2022/08/23 04:14:12;;;;;;;26.92;21.15;;;;;;;;;;5044007;28;20383;-83
2022/08/23 04:16:40;;;;;;;26.00;20.52;;;;;;;;;;5049450;28;20024;-83
2022/08/23 04:19:08;;;;;;;24.45;18.98;;;;;;;;;;5045003;28;20017;-83
2022/08/23 04:21:35;;;;;;;28.20;21.25;;;;;;;;;;5043325;28;20390;-81
2022/08/23 04:24:01;;;;;;;21.08;18.30;;;;;;;;;;5040151;28;20120;-83
2022/08/23 04:26:29;;;;;;;22.35;18.75;;;;;;;;;;5048781;28;20028;-83
2022/08/23 04:28:56;;;;;;;21.95;18.42;;;;;;;;;;5039462;28;20075;-83
2022/08/23 04:31:25;;;;;;;26.85;18.30;;;;;;;;;;5048116;28;20021;-83
2022/08/23 04:33:51;;;;;;;18.65;16.65;;;;;;;;;;5040730;28;20020;-83
2022/08/23 04:36:20;;;;;;;24.15;19.05;;;;;;;;;;5043881;28;20475;-83
2022/08/23 04:38:47;;;;;;;19.70;16.92;;;;;;;;;;5041194;28;20187;-81
2022/08/23 04:43:58;;;;;;;21.40;18.90;;;;;;;;;;5041537;28;20090;-83
2022/08/23 04:46:24;;;;;;;22.65;19.58;;;;;;;;;;5048722;28;20029;-82
2022/08/23 04:48:52;;;;;;;27.38;20.35;;;;;;;;;;5045663;28;20108;-83
2022/08/23 04:51:21;;;;;;;24.80;19.13;;;;;;;;;;5044434;28;20025;-82
2022/08/23 04:53:48;;;;;;;26.35;19.58;;;;;;;;;;5047302;28;20017;-82
2022/08/23 04:56:14;;;;;;;28.65;20.45;;;;;;;;;;5048447;28;20025;-83
2022/08/23 04:58:40;;;;;;;27.42;22.40;;;;;;;;;;5046947;28;20025;-83
2022/08/23 05:01:09;;;;;;;26.65;21.15;;;;;;;;;;5040846;28;20025;-83
2022/08/23 05:03:37;;;;;;;26.58;21.80;;;;;;;;;;5040399;28;20049;-82
2022/08/23 05:06:04;;;;;;;29.80;22.20;;;;;;;;;;5044289;28;20033;-83
2022/08/23 05:08:30;;;;;;;28.40;21.35;;;;;;;;;;5052348;28;20024;-83
2022/08/23 05:11:02;;;;;;;28.10;22.55;;;;;;;;;;5041160;28;20108;-82
2022/08/23 05:13:29;;;;;;;26.35;21.80;;;;;;;;;;5041402;28;20033;-84
2022/08/23 05:15:55;;;;;;;26.02;21.42;;;;;;;;;;5048801;28;20017;-82
2022/08/23 05:18:21;;;;;;;27.60;21.90;;;;;;;;;;5046936;28;20056;-83
2022/08/23 05:20:48;;;;;;;30.67;22.75;;;;;;;;;;5047892;28;20505;-84
2022/08/23 05:23:15;;;;;;;28.70;23.13;;;;;;;;;;5048663;28;20021;-83
2022/08/23 05:25:51;;;;;;;28.08;22.65;;;;;;;;;;5044893;28;20036;-83
2022/08/23 05:28:25;;;;;;;29.50;23.50;;;;;;;;;;5049569;28;20104;-83
2022/08/23 05:31:03;;;;;;;28.27;22.85;;;;;;;;;;5038767;28;20406;-83
2022/08/23 05:33:30;;;;;;;26.00;20.67;;;;;;;;;;5045479;28;20100;-84
2022/08/23 05:36:00;;;;;;;25.48;21.08;;;;;;;;;;5043052;28;20055;-84
2022/08/23 05:38:27;;;;;;;26.88;21.73;;;;;;;;;;5044764;28;20108;-83
2022/08/23 05:40:54;;;;;;;30.10;21.25;;;;;;;;;;5039538;28;20098;-83
2022/08/23 05:43:22;;;;;;;27.90;21.42;;;;;;;;;;5041394;28;20025;-81
2022/08/23 05:45:58;;;;;;;25.02;19.17;;;;;;;;;;5042192;28;20815;-82
2022/08/23 05:48:28;;;;;;;24.20;19.17;;;;;;;;;;5040670;28;20033;-82
2022/08/23 05:50:55;;;;;;;24.00;19.00;;;;;;;;;;5046450;28;20378;-82
2022/08/23 05:53:21;;;;;;;23.08;18.67;;;;;;;;;;5051987;28;20037;-81
2022/08/23 05:55:47;;;;;;;22.52;18.35;;;;;;;;;;5057148;28;20122;-80
2022/08/23 05:58:14;;;;;;;19.77;17.48;;;;;;;;;;5049401;28;20029;-84
2022/08/23 06:00:41;;;;;;;20.92;17.70;;;;;;;;;;5041177;28;20029;-83
2022/08/23 06:03:10;;;;;;;22.35;17.20;;;;;;;;;;5045515;28;20048;-82
2022/08/23 06:05:40;;;;;;;23.48;20.13;;;;;;;;;;5046202;28;20090;-83
2022/08/23 06:08:07;;;;;;;22.90;19.05;;;;;;;;;;5047775;28;20028;-83
2022/08/23 06:10:35;;;;;;;24.35;19.23;;;;;;;;;;5041510;28;20033;-82
2022/08/23 06:13:03;;;;;;;22.30;18.45;;;;;;;;;;5048386;28;20033;-84
2022/08/23 06:15:31;;;;;;;20.35;17.23;;;;;;;;;;5049055;28;20430;-83
2022/08/23 06:17:59;;;;;;;21.02;17.95;;;;;;;;;;5042408;28;20382;-82
2022/08/23 06:20:26;;;;;;;21.15;18.48;;;;;;;;;;5049284;28;20037;-82
2022/08/23 06:22:52;;;;;;;22.88;18.95;;;;;;;;;;5042131;28;20024;-81
2022/08/23 06:25:20;;;;;;;22.35;17.23;;;;;;;;;;5046398;28;20396;-82
2022/08/23 06:27:46;;;;;;;18.98;16.80;;;;;;;;;;5040474;28;20021;-83
2022/08/23 06:30:12;;;;;;;20.25;16.98;;;;;;;;;;5044580;28;20026;-84
2022/08/23 06:32:39;;;;;;;16.35;14.63;;;;;;;;;;5042468;28;20021;-84
2022/08/23 06:35:05;;;;;;;17.65;14.40;;;;;;;;;;5044887;28;20068;-84
2022/08/23 06:37:32;;;;;;;15.10;12.55;;;;;;;;;;5045617;28;20021;-83
2022/08/23 06:39:58;;;;;;;16.13;13.18;;;;;;;;;;5038957;28;20038;-82
2022/08/23 06:42:25;;;;;;;16.55;13.10;;;;;;;;;;5037888;28;20021;-83
2022/08/23 06:44:52;;;;;;;14.93;13.18;;;;;;;;;;5036992;28;20068;-83
2022/08/23 06:47:20;;;;;;;14.13;11.75;;;;;;;;;;5041335;28;20463;-82
2022/08/23 06:49:47;;;;;;;12.57;10.73;;;;;;;;;;5037190;28;20032;-82
2022/08/23 06:52:15;;;;;;;12.07;10.00;;;;;;;;;;5043628;28;20025;-82
2022/08/23 06:54:43;;;;;;;12.50;11.23;;;;;;;;;;5047547;28;20048;-82
2022/08/23 06:57:09;;;;;;;12.38;11.07;;;;;;;;;;5055390;28;20401;-82
2022/08/23 06:59:35;;;;;;;13.40;11.82;;;;;;;;;;5059390;28;20041;-80
2022/08/23 07:02:03;;;;;;;14.55;11.73;;;;;;;;;;5057159;28;20017;-83
2022/08/23 07:04:33;;;;;;;14.25;12.75;;;;;;;;;;5050426;28;20044;-84
2022/08/23 07:07:00;;;;;;;18.60;13.40;;;;;;;;;;5049693;28;20038;-82
2022/08/23 07:09:27;;;;;;;15.18;12.52;;;;;;;;;;5044384;28;20025;-83
2022/08/23 07:11:53;;;;;;;14.80;11.82;;;;;;;;;;5045476;28;20049;-83
2022/08/23 07:14:20;;;;;;;11.15;10.02;;;;;;;;;;5049506;28;20025;-82
2022/08/23 07:16:48;;;;;;;12.02;10.45;;;;;;;;;;5041211;28;20025;-83
2022/08/23 07:19:17;;;;;;;11.85;9.48;;;;;;;;;;5041961;28;20025;-83
2022/08/23 07:21:44;;;;;;;14.57;12.02;;;;;;;;;;5052690;28;20116;-83
2022/08/23 07:24:12;;;;;;;15.82;11.88;;;;;;;;;;5039690;28;20072;-83
2022/08/23 07:26:39;;;;;;;12.48;11.18;;;;;;;;;;5051707;28;20025;-82
2022/08/23 07:29:07;;;;;;;14.23;11.82;;;;;;;;;;5042665;28;20022;-84
2022/08/23 07:31:35;;;;;;;14.88;12.40;;;;;;;;;;5041807;28;20182;-83
2022/08/23 07:34:02;;;;;;;14.80;10.85;;;;;;;;;;5041170;28;20475;-83
2022/08/23 07:36:30;;;;;;;13.10;10.88;;;;;;;;;;5045253;28;20025;-83
2022/08/23 07:38:57;;;;;;;14.30;11.48;;;;;;;;;;5045213;28;20021;-81
2022/08/23 07:41:26;;;;;;;12.38;10.30;;;;;;;;;;5042163;28;20037;-83
2022/08/23 07:43:53;;;;;;;14.00;10.95;;;;;;;;;;5044521;28;20013;-81
2022/08/23 07:46:20;;;;;;;12.48;10.52;;;;;;;;;;5044441;28;20020;-84
2022/08/23 07:48:46;;;;;;;16.17;11.20;;;;;;;;;;5041286;28;20018;-83
2022/08/23 07:51:19;;;;;;;15.40;11.90;;;;;;;;;;5050222;28;20052;-84
2022/08/23 07:54:00;;;;;;;16.75;13.88;;;;;;;;;;5043256;28;20039;-89
2022/08/23 07:56:28;;;;;;;16.48;13.93;;;;;;;;;;5045327;28;20038;-91
2022/08/23 07:58:57;;;;;;;17.30;12.73;;;;;;;;;;5043971;28;20021;-90
2022/08/23 08:01:27;;;;;;;16.13;12.23;;;;;;;;;;5047795;28;20628;-87
2022/08/23 08:04:07;;;;;;;15.57;11.90;;;;;;;;;;5039595;28;20032;-88
2022/08/23 08:06:42;;;;;;;15.68;12.15;;;;;;;;;;5054260;28;20036;-84
2022/08/23 08:09:11;;;;;;;16.70;13.27;;;;;;;;;;5043390;28;20021;-86
2022/08/23 08:11:47;;;;;;;13.38;11.30;;;;;;;;;;5046312;28;20099;-87
2022/08/23 08:14:27;;;;;;;15.65;12.93;;;;;;;;;;5041549;28;20051;-88
2022/08/23 08:17:03;;;;;;;15.05;12.88;;;;;;;;;;5061998;28;20029;-84
2022/08/23 08:19:32;;;;;;;15.38;11.43;;;;;;;;;;5075140;28;20037;-85
2022/08/23 08:22:00;;;;;;;15.68;13.10;;;;;;;;;;5049360;28;20041;-82
2022/08/23 08:24:26;;;;;;;15.20;13.15;;;;;;;;;;5045656;28;20057;-84
2022/08/23 08:26:52;;;;;;;15.55;12.43;;;;;;;;;;5047294;28;20107;-86
2022/08/23 08:29:18;;;;;;;14.10;11.40;;;;;;;;;;5050489;28;20017;-85
2022/08/23 08:31:46;;;;;;;13.15;10.77;;;;;;;;;;5049172;28;20036;-86
2022/08/23 08:34:13;;;;;;;16.15;12.13;;;;;;;;;;5047112;28;20049;-84
2022/08/23 08:36:44;;;;;;;15.48;13.10;;;;;;;;;;5044145;28;20021;-85
2022/08/23 08:39:12;;;;;;;15.43;12.20;;;;;;;;;;5051635;28;20509;-87
2022/08/23 08:41:38;;;;;;;14.52;12.02;;;;;;;;;;5043727;28;20486;-85
2022/08/23 08:44:20;;;;;;;18.73;13.82;;;;;;;;;;5051642;28;20024;-84
2022/08/23 08:46:49;;;;;;;;;;;;;;;;;;5046876;28;20071;-86
2022/08/23 08:49:36;;;;;;;15.10;12.52;;;;;;;;;;5048995;28;19905;-86
2022/08/23 08:52:08;;;;;;;16.55;13.73;;;;;;;;;;5053651;28;20055;-86
2022/08/23 08:54:36;;;;;;;15.32;13.65;;;;;;;;;;5035554;28;20033;-85
2022/08/23 08:57:04;;;;;;;16.35;13.25;;;;;;;;;;5050370;28;20498;-85
2022/08/23 08:59:51;;;;;;;14.93;12.98;;;;;;;;;;5051340;28;20025;-84
2022/08/23 09:02:19;;;;;;;16.02;14.32;;;;;;;;;;5038657;28;20175;-84
2022/08/23 09:04:45;;;;;;;14.68;13.13;;;;;;;;;;5046383;28;20051;-85
2022/08/23 09:07:21;;;;;;;18.98;15.60;;;;;;;;;;5044295;28;20032;-86
2022/08/23 09:10:06;;;;;;;15.70;13.65;;;;;;;;;;5050077;28;20021;-86
2022/08/23 09:12:48;;;;;;;15.15;13.55;;;;;;;;;;5042704;28;20074;-86
2022/08/23 09:15:21;;;;;;;12.30;10.67;;;;;;;;;;5046358;28;20119;-84
2022/08/23 09:18:09;;;;;;;13.75;10.43;;;;;;;;;;5042292;28;20275;-86
2022/08/23 09:20:35;;;;;;;13.73;12.02;;;;;;;;;;5048314;28;20029;-85
2022/08/23 09:23:10;;;;;;;12.60;11.35;;;;;;;;;;5044767;28;20035;-86
2022/08/23 09:25:36;;;;;;;12.00;10.80;;;;;;;;;;5045216;28;20029;-86
2022/08/23 09:28:02;;;;;;;11.98;10.77;;;;;;;;;;5045292;28;20013;-86
2022/08/23 09:30:55;;;;;;;11.48;10.27;;;;;;;;;;5053131;28;20015;-85
2022/08/23 09:33:26;;;;;;;10.40;9.40;;;;;;;;;;5072631;28;20026;-85
2022/08/23 09:36:04;;;;;;;10.50;9.50;;;;;;;;;;5048533;28;20140;-86
2022/08/23 09:38:31;;;;;;;8.90;8.00;;;;;;;;;;5050151;28;20043;-85
2022/08/23 09:40:57;;;;;;;10.35;9.35;;;;;;;;;;5041940;28;20025;-88
2022/08/23 09:43:26;;;;;;;10.27;9.23;;;;;;;;;;5036653;28;20035;-83
2022/08/23 09:45:53;;;;;;;10.43;9.30;;;;;;;;;;5043684;28;20040;-87
2022/08/23 09:48:39;;;;;;;12.65;9.60;;;;;;;;;;5044117;28;20022;-86
2022/08/23 09:51:09;;;;;;;11.82;9.75;;;;;;;;;;5040435;28;20036;-86
2022/08/23 09:53:36;;;;;;;11.25;10.15;;;;;;;;;;5041907;28;20036;-86
2022/08/23 09:56:15;;;;;;;10.27;9.07;;;;;;;;;;5042165;28;20029;-84
2022/08/23 09:58:45;;;;;;;10.32;9.32;;;;;;;;;;5040117;28;20033;-89
2022/08/23 10:01:19;;;;;;;9.52;8.52;;;;;;;;;;5048538;28;20050;-88
2022/08/23 10:03:45;;;;;;;11.07;9.77;;;;;;;;;;5043270;28;20033;-86
2022/08/23 10:06:16;;;;;;;12.43;9.38;;;;;;;;;;5050616;28;20025;-87
2022/08/23 10:08:55;;;;;;;12.70;9.50;;;;;;;;;;5050837;28;20024;-87
2022/08/23 10:11:27;;;;;;;10.68;9.57;;;;;;;;;;5052320;28;20470;-87
2022/08/23 10:13:53;;;;;;;13.57;8.70;;;;;;;;;;5043117;28;20076;-86
2022/08/23 10:16:37;;;;;;;12.80;9.50;;;;;;;;;;5044302;28;20080;-86
2022/08/23 10:19:19;;;;;;;14.25;9.70;;;;;;;;;;5044824;28;20486;-87
2022/08/23 10:21:50;;;;;;;10.32;9.30;;;;;;;;;;5041909;28;20037;-85
2022/08/23 10:24:27;;;;;;;13.30;8.77;;;;;;;;;;5040454;28;20390;-87
2022/08/23 10:29:35;;;;;;;14.77;11.50;;;;;;;;;;5039969;28;20484;-85
2022/08/23 10:30:01;;;;;;;14.05;11.18;;;;;;;;;;5039453;28;20028;-85
2022/08/23 10:32:33;;;;;;;11.90;9.43;;;;;;;;;;5051686;28;20055;-84
2022/08/23 10:35:03;;;;;;;11.32;9.07;;;;;;;;;;5039226;28;20045;-83
2022/08/23 10:37:38;;;;;;;10.50;9.13;;;;;;;;;;5046989;28;20053;-83
2022/08/23 10:40:13;;;;;;;10.73;9.73;;;;;;;;;;5039661;28;20471;-83
2022/08/23 10:42:39;;;;;;;10.07;9.07;;;;;;;;;;5044252;28;20091;-86
2022/08/23 10:45:05;;;;;;;11.55;10.35;;;;;;;;;;5046327;28;20482;-83
2022/08/23 10:47:36;;;;;;;11.48;10.30;;;;;;;;;;5046680;28;20417;-87
2022/08/23 10:50:21;;;;;;;13.55;11.57;;;;;;;;;;5039925;28;20108;-83
2022/08/23 10:52:54;;;;;;;12.25;10.93;;;;;;;;;;5048642;28;20029;-84
2022/08/23 10:55:43;;;;;;;12.55;11.25;;;;;;;;;;5041098;28;20025;-85
2022/08/23 10:58:22;;;;;;;12.48;10.80;;;;;;;;;;5033432;28;20056;-83
2022/08/23 11:00:49;;;;;;;12.88;11.27;;;;;;;;;;5050929;28;20021;-86
2022/08/23 11:03:24;;;;;;;13.73;12.20;;;;;;;;;;5045223;28;20020;-86
2022/08/23 11:06:08;;;;;;;12.68;11.38;;;;;;;;;;5042396;28;20022;-87
2022/08/23 11:08:42;;;;;;;12.80;10.85;;;;;;;;;;5040839;28;20034;-83
2022/08/23 11:11:30;;;;;;;12.32;11.00;;;;;;;;;;5044084;28;20024;-84
2022/08/23 11:13:56;;;;;;;15.13;11.57;;;;;;;;;;5034983;28;20489;-84
2022/08/23 11:16:28;;;;;;;11.45;10.00;;;;;;;;;;5046808;28;20112;-85
2022/08/23 11:18:55;;;;;;;11.07;9.43;;;;;;;;;;5040707;28;20045;-84
2022/08/23 11:21:24;;;;;;;13.70;10.20;;;;;;;;;;5048095;28;20029;-85
2022/08/23 11:23:52;;;;;;;9.82;8.93;;;;;;;;;;5047012;28;20055;-83
2022/08/23 11:26:21;;;;;;;9.20;8.02;;;;;;;;;;5045148;28;20037;-83
2022/08/23 11:28:49;;;;;;;12.57;9.35;;;;;;;;;;5062440;28;20036;-83
2022/08/23 11:31:18;;;;;;;8.23;6.93;;;;;;;;;;5051683;28;20076;-84
2022/08/23 11:33:53;;;;;;;8.75;6.25;;;;;;;;;;5047656;28;20113;-84
2022/08/23 11:36:24;;;;;;;7.70;6.50;;;;;;;;;;5045781;28;20039;-84
2022/08/23 11:38:50;;;;;;;8.25;6.90;;;;;;;;;;5048205;28;20048;-85
2022/08/23 11:41:20;;;;;;;10.00;6.80;;;;;;;;;;5047207;28;20028;-84
2022/08/23 11:43:56;;;;;;;10.68;8.13;;;;;;;;;;5042135;28;20136;-85
2022/08/23 11:46:25;;;;;;;7.70;6.47;;;;;;;;;;5044870;28;20037;-87
2022/08/23 11:49:11;;;;;;;8.88;6.53;;;;;;;;;;5043934;28;20025;-85
2022/08/23 11:52:04;;;;;;;8.55;5.72;;;;;;;;;;5044498;28;20030;-87
2022/08/23 11:54:30;;;;;;;;;;;;;;;;;;5044582;28;20116;-87
2022/08/23 11:57:14;;;;;;;6.43;5.43;;;;;;;;;;5048270;28;20423;-86
2022/08/23 11:59:49;;;;;;;7.43;5.68;;;;;;;;;;5054433;28;20056;-87
2022/08/23 12:02:32;;;;;;;7.45;5.40;;;;;;;;;;5039832;28;20390;-85
2022/08/23 12:04:59;;;;;;;6.30;5.32;;;;;;;;;;5035292;28;20047;-87
2022/08/23 12:07:44;;;;;;;5.40;4.90;;;;;;;;;;5035576;28;20028;-85
2022/08/23 12:10:14;;;;;;;5.57;5.00;;;;;;;;;;5043515;28;20025;-86
2022/08/23 12:12:42;;;;;;;7.65;4.93;;;;;;;;;;5045695;28;20124;-86
2022/08/23 12:15:10;;;;;;;5.40;4.85;;;;;;;;;;5046364;28;20079;-86
2022/08/23 12:17:40;;;;;;;6.00;5.07;;;;;;;;;;5064196;28;20025;-85
2022/08/23 12:20:10;;;;;;;7.22;6.15;;;;;;;;;;5041975;28;20045;-83
2022/08/23 12:22:56;;;;;;;7.68;6.30;;;;;;;;;;5049643;28;20028;-85
2022/08/23 12:25:23;;;;;;;9.43;5.10;;;;;;;;;;5042022;28;20033;-83
2022/08/23 12:28:06;;;;;;;6.60;4.18;;;;;;;;;;5040765;28;20036;-84
2022/08/23 12:30:42;;;;;;;6.82;4.60;;;;;;;;;;5052891;28;20198;-84
2022/08/23 12:33:12;;;;;;;5.57;4.25;;;;;;;;;;5044949;28;20056;-85
2022/08/23 12:35:49;;;;;;;6.85;4.10;;;;;;;;;;5046472;28;20095;-82
2022/08/23 12:38:45;;;;;;;5.55;4.45;;;;;;;;;;5035851;28;20021;-85
2022/08/23 12:41:21;;;;;;;4.93;4.43;;;;;;;;;;5012924;28;20088;-83
2022/08/23 12:43:58;;;;;;;5.50;4.85;;;;;;;;;;5011019;28;20026;-83
2022/08/23 12:46:33;;;;;;;5.00;4.32;;;;;;;;;;5038803;28;20049;-83
2022/08/23 12:49:00;;;;;;;5.65;5.05;;;;;;;;;;5043089;28;20025;-80
2022/08/23 12:51:27;;;;;;;5.72;4.60;;;;;;;;;;5051661;28;20033;-80
2022/08/23 12:53:59;;;;;;;6.55;4.97;;;;;;;;;;5045116;28;20383;-83
2022/08/23 12:56:26;;;;;;;10.37;5.63;;;;;;;;;;5048569;28;20070;-83
2022/08/23 12:58:57;;;;;;;7.18;5.50;;;;;;;;;;5041029;28;20017;-82
2022/08/23 13:01:33;;;;;;;7.78;5.97;;;;;;;;;;5039563;28;20025;-82
2022/08/23 13:04:09;;;;;;;7.35;5.95;;;;;;;;;;5046178;28;20112;-83
2022/08/23 13:06:48;;;;;;;6.82;5.90;;;;;;;;;;5039284;28;20679;-83
2022/08/23 13:09:15;;;;;;;7.25;5.65;;;;;;;;;;5047106;28;20031;-83
2022/08/23 13:11:42;;;;;;;8.45;6.22;;;;;;;;;;5041754;28;20075;-82
2022/08/23 13:14:25;;;;;;;7.03;6.32;;;;;;;;;;5046348;28;20021;-82
2022/08/23 13:16:51;;;;;;;6.68;5.97;;;;;;;;;;5039865;28;20112;-82
2022/08/23 13:19:23;;;;;;;7.40;6.38;;;;;;;;;;5037359;28;20079;-82
2022/08/23 13:22:08;;;;;;;6.55;5.85;;;;;;;;;;5038722;28;20052;-80
2022/08/23 13:24:35;;;;;;;8.15;6.38;;;;;;;;;;5039052;28;20410;-82
2022/08/23 13:27:17;;;;;;;8.60;6.40;;;;;;;;;;5038871;28;20025;-81
2022/08/23 13:29:58;;;;;;;7.05;6.18;;;;;;;;;;5042177;28;20604;-83
2022/08/23 13:32:35;;;;;;;8.13;6.40;;;;;;;;;;5063667;28;20043;-81
2022/08/23 13:35:20;;;;;;;7.65;6.95;;;;;;;;;;5042612;28;20136;-82
2022/08/23 13:37:46;;;;;;;7.40;6.65;;;;;;;;;;5044269;28;20025;-81
2022/08/23 13:40:17;;;;;;;8.05;6.85;;;;;;;;;;5039752;28;20470;-82
2022/08/23 13:42:47;;;;;;;9.63;7.80;;;;;;;;;;5048692;28;20107;-83
2022/08/23 13:45:37;;;;;;;8.57;7.60;;;;;;;;;;5041832;28;20037;-83
2022/08/23 13:48:08;;;;;;;9.23;6.70;;;;;;;;;;5033034;28;20037;-80
2022/08/23 13:50:37;;;;;;;8.35;7.55;;;;;;;;;;5046982;28;20553;-82
2022/08/23 13:53:05;;;;;;;8.48;7.68;;;;;;;;;;5041475;28;20577;-82
2022/08/23 13:55:33;;;;;;;8.10;7.35;;;;;;;;;;5045802;28;20235;-81
2022/08/23 13:57:59;;;;;;;7.72;7.00;;;;;;;;;;5041025;28;20053;-81
2022/08/23 14:00:26;;;;;;;9.45;8.55;;;;;;;;;;5037415;28;20474;-82
2022/08/23 14:02:52;;;;;;;8.95;8.15;;;;;;;;;;5045524;28;20021;-80
2022/08/23 14:05:20;;;;;;;8.40;7.60;;;;;;;;;;5040890;28;20080;-79
2022/08/23 14:07:51;;;;;;;8.95;8.15;;;;;;;;;;5039605;28;20026;-80
2022/08/23 14:10:18;;;;;;;8.03;7.30;;;;;;;;;;5036570;28;20052;-81
2022/08/23 14:12:45;;;;;;;9.05;8.10;;;;;;;;;;5048450;28;20285;-82
2022/08/23 14:15:12;;;;;;;8.40;7.50;;;;;;;;;;5044515;28;20119;-83
2022/08/23 14:17:43;;;;;;;8.18;7.40;;;;;;;;;;5038979;28;20056;-80
2022/08/23 14:20:11;;;;;;;8.52;7.72;;;;;;;;;;5035458;28;20021;-81
2022/08/23 14:22:37;;;;;;;8.60;7.80;;;;;;;;;;5038723;28;20368;-81
2022/08/23 14:25:07;;;;;;;8.90;8.10;;;;;;;;;;5051023;28;20468;-82
2022/08/23 14:27:34;;;;;;;9.50;8.43;;;;;;;;;;5051568;28;20028;-83
2022/08/23 14:30:02;;;;;;;15.30;13.80;;;;;;;;;;5052137;28;20493;-81
2022/08/23 14:32:29;;;;;;;10.52;9.52;;;;;;;;;;5039388;28;20048;-82
2022/08/23 14:34:55;;;;;;;10.80;9.80;;;;;;;;;;5045906;28;20048;-81
2022/08/23 14:37:22;;;;;;;10.50;9.48;;;;;;;;;;5048858;28;20049;-81
2022/08/23 14:39:48;;;;;;;10.32;9.32;;;;;;;;;;5051931;28;20063;-81
2022/08/23 14:42:18;;;;;;;11.50;9.68;;;;;;;;;;5049821;28;20013;-82
2022/08/23 14:44:44;;;;;;;11.30;10.18;;;;;;;;;;5046254;28;20032;-83
2022/08/23 14:47:11;;;;;;;12.32;10.55;;;;;;;;;;5049968;28;20173;-84
2022/08/23 14:49:37;;;;;;;15.25;13.40;;;;;;;;;;5041884;28;20068;-81